Time;durP1;ratioP1;P1;durP2;ratioP2;P2;SDS_P1;SDS_P2;PMS_P1;PMS_P2;Temp;Humidity;BMP_temperature;BMP_pressure;BME280_temperature;BME280_humidity;BME280_pressure;Samples;Min_cycle;Max_cycle;Signal;HPM_P1;HPM_P2
2021/12/31 00:00:36;;;;;;;0.80;0.70;;;18.20;40.80;;;;;;5069431;28;20216;-66
2021/12/31 00:03:01;;;;;;;0.83;0.70;;;18.20;40.80;;;;;;5069014;28;20582;-66
2021/12/31 00:05:27;;;;;;;1.30;1.20;;;18.20;40.80;;;;;;5051478;28;20421;-66
2021/12/31 00:07:53;;;;;;;0.93;0.70;;;18.20;40.90;;;;;;5069296;28;20218;-66
2021/12/31 00:10:18;;;;;;;0.70;0.60;;;18.20;40.80;;;;;;5069326;28;20423;-66
2021/12/31 00:12:44;;;;;;;0.97;0.90;;;18.20;40.90;;;;;;5069060;28;20222;-66
2021/12/31 00:15:11;;;;;;;0.80;0.80;;;18.20;40.90;;;;;;5069660;28;20210;-66
2021/12/31 00:17:38;;;;;;;0.70;0.70;;;18.20;40.80;;;;;;5051398;28;20213;-66
2021/12/31 00:20:10;;;;;;;0.80;0.70;;;18.20;40.90;;;;;;5069134;28;20958;-66
2021/12/31 00:25:21;;;;;;;0.70;0.70;;;18.20;40.90;;;;;;5067321;28;20429;-66
2021/12/31 00:27:47;;;;;;;0.70;0.70;;;18.10;40.80;;;;;;5068765;28;20443;-67
2021/12/31 00:30:13;;;;;;;0.70;0.70;;;18.20;41.00;;;;;;5068885;28;20795;-66
2021/12/31 00:32:39;;;;;;;0.73;0.70;;;18.10;40.90;;;;;;5065913;28;20443;-66
2021/12/31 00:35:06;;;;;;;0.87;0.70;;;18.10;40.90;;;;;;5068885;28;20449;-66
2021/12/31 00:37:35;;;;;;;0.80;0.80;;;18.10;40.90;;;;;;5051026;28;20594;-66
2021/12/31 00:40:03;;;;;;;0.70;0.70;;;18.20;41.00;;;;;;5067995;28;20443;-66
2021/12/31 00:42:28;;;;;;;0.70;0.70;;;18.10;40.90;;;;;;5069117;28;20522;-66
2021/12/31 00:44:54;;;;;;;0.80;0.80;;;18.10;40.90;;;;;;5068920;28;20951;-66
2021/12/31 00:47:20;;;;;;;0.83;0.80;;;18.20;41.00;;;;;;5068839;28;20288;-66
2021/12/31 00:49:46;;;;;;;0.70;0.70;;;18.20;41.00;;;;;;5068970;28;20233;-66
2021/12/31 00:52:12;;;;;;;0.90;0.80;;;18.10;40.90;;;;;;5069477;28;20547;-66
2021/12/31 00:54:38;;;;;;;1.07;1.00;;;18.10;40.90;;;;;;5069042;28;20459;-66
2021/12/31 00:57:05;;;;;;;0.80;0.73;;;18.10;40.90;;;;;;5068762;28;20796;-66
2021/12/31 00:59:31;;;;;;;0.70;0.60;;;18.10;40.90;;;;;;5070565;28;20205;-66
2021/12/31 01:02:03;;;;;;;1.20;0.73;;;18.20;41.10;;;;;;5072417;28;20512;-66
2021/12/31 01:04:30;;;;;;;0.73;0.73;;;18.10;40.90;;;;;;5072256;28;20478;-66
2021/12/31 01:06:57;;;;;;;1.00;0.93;;;18.10;40.90;;;;;;5072279;28;20461;-66
2021/12/31 01:09:23;;;;;;;0.77;0.77;;;18.10;41.00;;;;;;5072396;28;20446;-66
2021/12/31 01:11:49;;;;;;;0.80;0.80;;;18.10;41.00;;;;;;5072220;28;21220;-66
2021/12/31 01:14:29;;;;;;;1.10;0.67;;;18.10;41.00;;;;;;5072343;28;20319;-66
2021/12/31 01:17:03;;;;;;;1.60;0.80;;;18.10;41.00;;;;;;5072265;28;20454;-66
2021/12/31 01:19:46;;;;;;;0.70;0.70;;;18.10;41.80;;;;;;5069762;28;20457;-66
2021/12/31 01:22:14;;;;;;;0.70;0.70;;;18.10;41.00;;;;;;5071075;28;20526;-66
2021/12/31 01:24:40;;;;;;;0.70;0.70;;;18.10;41.00;;;;;;5072346;28;20449;-66
2021/12/31 01:27:05;;;;;;;0.70;0.70;;;18.10;41.00;;;;;;5071857;28;20430;-66
2021/12/31 01:29:31;;;;;;;0.70;0.60;;;18.10;41.00;;;;;;5072267;28;20222;-66
2021/12/31 01:31:56;;;;;;;0.80;0.80;;;18.10;41.00;;;;;;5072093;28;20220;-66
2021/12/31 01:34:24;;;;;;;0.80;0.70;;;18.10;41.10;;;;;;5072042;28;20317;-67
2021/12/31 01:36:50;;;;;;;0.90;0.80;;;18.10;41.00;;;;;;5071604;28;20308;-66
2021/12/31 01:39:16;;;;;;;0.90;0.80;;;18.10;41.10;;;;;;5071852;28;20988;-66
2021/12/31 01:41:42;;;;;;;0.80;0.77;;;18.10;41.10;;;;;;5072342;28;20434;-66
2021/12/31 01:44:08;;;;;;;0.80;0.80;;;18.10;41.00;;;;;;5071775;28;20263;-67
2021/12/31 01:46:36;;;;;;;0.80;0.77;;;18.20;41.20;;;;;;5071628;28;20209;-66
2021/12/31 01:49:03;;;;;;;0.77;0.73;;;18.10;41.10;;;;;;5070469;28;20244;-66
2021/12/31 01:51:30;;;;;;;0.80;0.80;;;18.20;41.20;;;;;;5071635;28;20456;-66
2021/12/31 01:53:55;;;;;;;1.00;0.90;;;18.10;41.10;;;;;;5071484;28;20459;-67
2021/12/31 01:56:24;;;;;;;0.77;0.77;;;18.10;41.10;;;;;;5071199;28;20440;-66
2021/12/31 01:58:55;;;;;;;0.77;0.70;;;18.10;41.10;;;;;;5071252;28;20755;-66
2021/12/31 02:01:22;;;;;;;1.00;0.90;;;18.20;41.20;;;;;;5071607;28;20487;-66
2021/12/31 02:03:48;;;;;;;1.07;0.97;;;18.10;41.10;;;;;;5070976;28;20579;-66
2021/12/31 02:06:14;;;;;;;0.80;0.80;;;18.10;41.10;;;;;;5071426;28;20424;-67
2021/12/31 02:08:40;;;;;;;0.80;0.80;;;18.10;41.10;;;;;;5053783;28;20442;-66
2021/12/31 02:11:05;;;;;;;0.90;0.90;;;18.10;41.10;;;;;;5070642;28;20213;-66
2021/12/31 02:13:31;;;;;;;1.20;1.10;;;18.10;41.10;;;;;;5071293;28;20300;-66
2021/12/31 02:15:56;;;;;;;0.93;0.80;;;18.10;41.10;;;;;;5071176;28;20231;-66
2021/12/31 02:18:22;;;;;;;1.33;0.80;;;18.10;41.10;;;;;;5071203;28;20221;-66
2021/12/31 02:20:49;;;;;;;0.80;0.80;;;18.10;41.10;;;;;;5070989;28;20262;-66
2021/12/31 02:23:28;;;;;;;0.80;0.80;;;18.10;41.10;;;;;;5071111;28;20304;-66
2021/12/31 02:25:54;;;;;;;1.00;0.80;;;18.10;41.10;;;;;;5069307;28;20500;-67
2021/12/31 02:28:20;;;;;;;0.80;0.73;;;18.10;41.20;;;;;;5070827;28;20503;-66
2021/12/31 02:30:47;;;;;;;0.80;0.80;;;18.10;41.10;;;;;;5070760;28;20822;-66
2021/12/31 02:33:12;;;;;;;0.70;0.70;;;18.10;41.90;;;;;;5071348;28;20217;-66
2021/12/31 02:35:39;;;;;;;0.73;0.70;;;18.10;41.10;;;;;;5071000;28;20782;-66
2021/12/31 02:38:07;;;;;;;0.70;0.70;;;18.10;41.10;;;;;;5052774;28;20275;-66
2021/12/31 02:40:34;;;;;;;0.90;0.70;;;18.10;41.10;;;;;;5070824;28;20450;-66
2021/12/31 02:43:00;;;;;;;0.80;0.80;;;18.10;41.10;;;;;;5069340;28;20457;-66
2021/12/31 02:45:33;;;;;;;0.80;0.80;;;18.10;41.20;;;;;;5070678;28;20460;-66
2021/12/31 02:48:02;;;;;;;0.70;0.70;;;18.10;41.20;;;;;;5070050;28;20799;-66
2021/12/31 02:50:33;;;;;;;1.00;0.80;;;18.10;41.10;;;;;;5070487;28;20514;-66
2021/12/31 02:53:04;;;;;;;1.13;1.03;;;18.10;41.20;;;;;;5070304;28;20565;-66
2021/12/31 02:55:30;;;;;;;0.77;0.77;;;18.10;41.20;;;;;;5070494;28;20470;-66
2021/12/31 02:58:00;;;;;;;0.77;0.73;;;18.10;41.10;;;;;;5069248;28;20446;-66
2021/12/31 03:00:27;;;;;;;0.90;0.70;;;18.10;41.20;;;;;;5067746;28;20421;-66
2021/12/31 03:02:54;;;;;;;0.70;0.70;;;18.10;41.10;;;;;;5069733;28;20436;-66
2021/12/31 03:05:22;;;;;;;0.80;0.70;;;18.10;41.20;;;;;;5070071;28;20424;-66
2021/12/31 03:07:49;;;;;;;0.80;0.70;;;18.10;41.20;;;;;;5069942;28;20417;-66
2021/12/31 03:10:17;;;;;;;0.83;0.80;;;18.10;41.20;;;;;;5059873;28;20766;-66
2021/12/31 03:12:43;;;;;;;0.80;0.73;;;18.20;41.30;;;;;;5067281;28;20829;-66
2021/12/31 03:15:10;;;;;;;0.70;0.70;;;18.10;41.20;;;;;;5068315;28;20417;-66
2021/12/31 03:17:36;;;;;;;0.77;0.70;;;18.10;41.20;;;;;;5070063;28;20832;-66
2021/12/31 03:20:11;;;;;;;0.73;0.73;;;18.10;41.20;;;;;;5068760;28;20450;-66
2021/12/31 03:22:38;;;;;;;0.70;0.70;;;18.10;41.20;;;;;;5068091;28;20893;-66
2021/12/31 03:25:05;;;;;;;0.90;0.70;;;18.10;41.20;;;;;;5069185;28;20464;-66
2021/12/31 03:27:31;;;;;;;0.70;0.70;;;18.10;41.20;;;;;;5051707;28;20470;-66
2021/12/31 03:29:57;;;;;;;0.70;0.60;;;18.20;41.30;;;;;;5069755;28;20782;-66
2021/12/31 03:32:24;;;;;;;0.70;0.70;;;18.10;41.20;;;;;;5069624;28;20416;-66
2021/12/31 03:34:50;;;;;;;1.00;0.90;;;18.20;41.30;;;;;;5067186;28;20417;-67
2021/12/31 03:37:15;;;;;;;0.80;0.70;;;18.20;41.30;;;;;;5069637;28;20470;-66
2021/12/31 03:39:41;;;;;;;0.80;0.80;;;18.20;41.20;;;;;;5070672;28;20701;-66
2021/12/31 03:42:07;;;;;;;0.70;0.70;;;18.20;41.20;;;;;;5069537;28;20237;-66
2021/12/31 03:44:32;;;;;;;0.80;0.70;;;18.20;41.20;;;;;;5069576;28;20445;-66
2021/12/31 03:46:58;;;;;;;0.70;0.70;;;18.20;41.30;;;;;;5069629;28;20224;-66
2021/12/31 03:49:24;;;;;;;0.90;0.80;;;18.20;41.20;;;;;;5069490;28;20221;-66
2021/12/31 03:51:49;;;;;;;0.80;0.80;;;18.20;41.20;;;;;;5069293;28;20213;-66
2021/12/31 03:54:15;;;;;;;0.80;0.70;;;18.20;41.20;;;;;;5069531;28;20286;-66
2021/12/31 03:56:41;;;;;;;0.90;0.70;;;18.10;41.10;;;;;;5070252;28;20667;-66
2021/12/31 03:59:06;;;;;;;0.83;0.80;;;18.10;41.10;;;;;;5069401;28;20241;-66
2021/12/31 04:01:32;;;;;;;0.87;0.80;;;18.20;41.30;;;;;;5069386;28;21527;-66
2021/12/31 04:03:58;;;;;;;1.00;0.90;;;18.20;41.30;;;;;;5069099;28;20238;-66
2021/12/31 04:06:24;;;;;;;0.90;0.90;;;18.20;41.30;;;;;;5069427;28;20220;-66
2021/12/31 04:08:50;;;;;;;0.67;0.63;;;18.10;41.20;;;;;;5068843;28;20253;-66
2021/12/31 04:11:16;;;;;;;0.90;0.80;;;18.20;41.30;;;;;;5065571;28;20217;-66
2021/12/31 04:13:42;;;;;;;0.70;0.70;;;18.10;41.20;;;;;;5069676;28;20428;-66
2021/12/31 04:16:08;;;;;;;0.80;0.80;;;18.10;41.20;;;;;;5051434;28;20213;-66
2021/12/31 04:18:33;;;;;;;0.70;0.67;;;18.10;41.20;;;;;;5066319;28;20639;-66
2021/12/31 04:21:01;;;;;;;0.70;0.70;;;18.20;41.30;;;;;;5068996;28;20214;-66
2021/12/31 04:23:33;;;;;;;0.80;0.80;;;18.10;41.20;;;;;;5069196;28;20225;-66
2021/12/31 04:25:59;;;;;;;0.80;0.80;;;18.20;41.30;;;;;;5067143;28;20465;-66
2021/12/31 04:28:26;;;;;;;0.80;0.80;;;18.20;41.30;;;;;;5069004;28;20475;-66
2021/12/31 04:30:52;;;;;;;0.80;0.70;;;18.10;41.20;;;;;;5069065;28;20443;-66
2021/12/31 04:33:18;;;;;;;0.80;0.80;;;18.20;41.40;;;;;;5070718;28;20713;-66
2021/12/31 04:35:44;;;;;;;0.80;0.80;;;18.10;41.20;;;;;;5073098;28;21002;-66
2021/12/31 04:38:10;;;;;;;0.70;0.70;;;18.20;41.30;;;;;;5073206;28;20214;-66
2021/12/31 04:40:36;;;;;;;0.70;0.60;;;18.10;41.30;;;;;;5072941;28;20776;-66
2021/12/31 04:43:01;;;;;;;0.70;0.70;;;18.10;41.20;;;;;;5073088;28;20210;-66
2021/12/31 04:45:27;;;;;;;0.80;0.80;;;18.10;41.30;;;;;;5054723;28;20213;-67
2021/12/31 04:47:53;;;;;;;0.80;0.70;;;18.10;41.30;;;;;;5072376;28;20214;-66
2021/12/31 04:50:18;;;;;;;0.70;0.70;;;18.10;41.30;;;;;;5071537;28;20549;-66
2021/12/31 04:52:45;;;;;;;0.70;0.70;;;18.10;41.30;;;;;;5072792;28;20241;-66
2021/12/31 04:55:11;;;;;;;0.70;0.60;;;18.10;41.30;;;;;;5073189;28;20742;-66
2021/12/31 04:57:38;;;;;;;0.70;0.67;;;18.10;41.30;;;;;;5072638;28;20416;-66
2021/12/31 05:00:07;;;;;;;0.70;0.70;;;18.10;41.30;;;;;;5072457;28;20898;-66
2021/12/31 05:02:33;;;;;;;0.80;0.80;;;18.10;41.30;;;;;;5072492;28;20948;-66
2021/12/31 05:04:59;;;;;;;0.70;0.70;;;18.10;41.40;;;;;;5072216;28;20433;-66
2021/12/31 05:07:24;;;;;;;0.70;0.70;;;18.10;41.30;;;;;;5072709;28;20696;-66
2021/12/31 05:09:50;;;;;;;0.93;0.83;;;18.10;41.30;;;;;;5072277;28;20226;-66
2021/12/31 05:12:22;;;;;;;0.80;0.80;;;18.10;41.30;;;;;;5072406;28;20228;-66
2021/12/31 05:14:47;;;;;;;0.80;0.70;;;18.20;41.50;;;;;;5072154;28;20242;-67
2021/12/31 05:17:13;;;;;;;0.70;0.70;;;18.10;41.30;;;;;;5072365;28;20478;-66
2021/12/31 05:19:43;;;;;;;0.80;0.80;;;18.10;41.30;;;;;;5072644;28;20658;-67
2021/12/31 05:22:12;;;;;;;0.70;0.70;;;18.10;41.30;;;;;;5072316;28;20628;-66
2021/12/31 05:24:39;;;;;;;1.20;1.10;;;18.10;41.30;;;;;;5070546;28;20417;-66
2021/12/31 05:27:05;;;;;;;1.23;0.80;;;18.10;41.40;;;;;;5072183;28;20428;-66
2021/12/31 05:29:31;;;;;;;0.70;0.70;;;18.10;41.40;;;;;;5072163;28;20462;-66
2021/12/31 05:31:56;;;;;;;0.70;0.70;;;18.10;41.40;;;;;;5072048;28;20226;-66
2021/12/31 05:34:22;;;;;;;0.70;0.70;;;18.10;41.40;;;;;;5070410;28;20267;-67
2021/12/31 05:36:48;;;;;;;0.90;0.70;;;18.10;41.40;;;;;;5071796;28;20568;-66
2021/12/31 05:39:14;;;;;;;0.80;0.80;;;18.10;41.40;;;;;;5071432;28;20219;-66
2021/12/31 05:41:40;;;;;;;1.00;0.90;;;18.10;41.40;;;;;;5072385;28;20297;-66
2021/12/31 05:44:07;;;;;;;0.80;0.80;;;18.10;41.50;;;;;;5071183;28;20525;-66
2021/12/31 05:46:33;;;;;;;0.70;0.60;;;18.10;41.50;;;;;;5071472;28;20738;-66
2021/12/31 05:48:58;;;;;;;0.70;0.70;;;18.10;41.40;;;;;;5071628;28;20508;-66
2021/12/31 05:51:26;;;;;;;0.70;0.70;;;18.10;41.40;;;;;;5071867;28;20410;-66
2021/12/31 05:53:52;;;;;;;0.80;0.80;;;18.10;41.50;;;;;;5071476;28;20220;-66
2021/12/31 05:56:18;;;;;;;0.70;0.70;;;18.10;41.50;;;;;;5071333;28;20439;-66
2021/12/31 05:58:43;;;;;;;0.80;0.80;;;18.10;41.50;;;;;;5071746;28;20453;-66
2021/12/31 06:01:09;;;;;;;0.70;0.60;;;18.10;41.50;;;;;;5053344;28;20293;-66
2021/12/31 06:03:35;;;;;;;1.03;0.80;;;18.10;41.50;;;;;;5071258;28;20319;-66
2021/12/31 06:06:00;;;;;;;0.70;0.70;;;18.10;41.50;;;;;;5071322;28;20733;-66
2021/12/31 06:08:26;;;;;;;1.07;0.80;;;18.10;41.50;;;;;;5071432;28;20256;-66
2021/12/31 06:10:52;;;;;;;0.70;0.70;;;18.10;41.50;;;;;;5071323;28;20226;-66
2021/12/31 06:13:18;;;;;;;0.77;0.70;;;18.10;41.50;;;;;;5071324;28;20217;-67
2021/12/31 06:15:45;;;;;;;0.93;0.80;;;18.10;41.60;;;;;;5068439;28;20663;-66
2021/12/31 06:18:11;;;;;;;0.77;0.73;;;18.10;41.50;;;;;;5070343;28;20439;-66
2021/12/31 06:20:37;;;;;;;0.80;0.80;;;18.10;41.50;;;;;;5071151;28;20413;-66
2021/12/31 06:23:03;;;;;;;0.80;0.70;;;18.10;41.50;;;;;;5071156;28;20253;-66
2021/12/31 06:25:28;;;;;;;0.70;0.70;;;18.10;41.60;;;;;;5071091;28;20481;-66
2021/12/31 06:27:54;;;;;;;1.43;0.80;;;18.10;41.60;;;;;;5070894;28;20221;-66
2021/12/31 06:30:20;;;;;;;0.90;0.80;;;18.10;41.60;;;;;;5070750;28;20225;-66
2021/12/31 06:32:46;;;;;;;1.13;0.90;;;18.10;41.60;;;;;;5069005;28;20567;-66
2021/12/31 06:35:11;;;;;;;0.80;0.80;;;18.10;41.60;;;;;;5071113;28;20523;-66
2021/12/31 06:37:37;;;;;;;1.03;0.80;;;18.10;41.60;;;;;;5070725;28;20257;-66
2021/12/31 06:40:06;;;;;;;0.70;0.70;;;18.10;41.60;;;;;;5070664;28;20226;-66
2021/12/31 06:42:33;;;;;;;0.70;0.70;;;18.10;41.60;;;;;;5052492;28;20557;-67
2021/12/31 06:44:59;;;;;;;0.83;0.70;;;18.10;41.60;;;;;;5052554;28;20450;-66
2021/12/31 06:47:25;;;;;;;0.90;0.80;;;18.10;41.50;;;;;;5070460;28;20420;-66
2021/12/31 06:49:50;;;;;;;0.90;0.80;;;18.10;41.50;;;;;;5070221;28;20295;-66
2021/12/31 06:52:16;;;;;;;0.90;0.70;;;18.10;41.60;;;;;;5070574;28;20220;-67
2021/12/31 06:54:41;;;;;;;0.70;0.70;;;18.10;41.60;;;;;;5071030;28;20302;-66
2021/12/31 06:57:07;;;;;;;0.70;0.70;;;18.10;41.60;;;;;;5070445;28;20725;-66
2021/12/31 06:59:33;;;;;;;1.07;0.80;;;18.10;41.60;;;;;;5070477;28;20226;-66
2021/12/31 07:01:58;;;;;;;0.80;0.70;;;18.10;41.60;;;;;;5070218;28;20224;-66
2021/12/31 07:04:24;;;;;;;0.80;0.70;;;18.10;41.60;;;;;;5070103;28;20229;-66
2021/12/31 07:06:50;;;;;;;0.70;0.70;;;18.10;41.60;;;;;;5070019;28;20224;-66
2021/12/31 07:09:15;;;;;;;0.70;0.60;;;18.10;41.60;;;;;;5070293;28;20226;-66
2021/12/31 07:11:41;;;;;;;0.67;0.60;;;18.10;41.60;;;;;;5070757;28;20632;-66
2021/12/31 07:14:07;;;;;;;0.90;0.90;;;18.10;41.60;;;;;;5070087;28;20279;-66
2021/12/31 07:16:33;;;;;;;0.70;0.70;;;18.10;41.50;;;;;;5069985;28;20279;-66
2021/12/31 07:18:58;;;;;;;1.10;0.90;;;18.10;41.50;;;;;;5069912;28;20291;-66
2021/12/31 07:21:24;;;;;;;0.70;0.70;;;18.10;41.60;;;;;;5069779;28;20910;-67
2021/12/31 07:23:49;;;;;;;0.70;0.70;;;18.10;41.50;;;;;;5069739;28;20214;-66
2021/12/31 07:26:15;;;;;;;0.80;0.70;;;18.10;41.50;;;;;;5069900;28;20737;-66
2021/12/31 07:28:41;;;;;;;0.90;0.80;;;18.10;41.50;;;;;;5070066;28;20348;-66
2021/12/31 07:31:11;;;;;;;0.70;0.70;;;18.10;41.50;;;;;;5069679;28;20237;-66
2021/12/31 07:33:37;;;;;;;0.83;0.80;;;18.10;41.50;;;;;;5069520;28;20229;-66
2021/12/31 07:36:03;;;;;;;1.17;0.80;;;18.10;41.50;;;;;;5069437;28;20751;-66
2021/12/31 07:38:34;;;;;;;0.90;0.73;;;18.10;42.20;;;;;;5069504;28;20209;-66
2021/12/31 07:40:59;;;;;;;0.70;0.70;;;18.10;41.50;;;;;;5068177;28;20730;-66
2021/12/31 07:43:25;;;;;;;0.70;0.70;;;18.10;41.50;;;;;;5069739;28;20512;-66
2021/12/31 07:45:54;;;;;;;0.70;0.70;;;18.10;41.50;;;;;;5069556;28;20542;-66
2021/12/31 07:48:21;;;;;;;1.00;0.90;;;18.10;41.50;;;;;;5069505;28;20264;-66
2021/12/31 07:50:47;;;;;;;0.87;0.70;;;18.10;41.50;;;;;;5069541;28;20443;-66
2021/12/31 07:53:13;;;;;;;1.23;0.90;;;18.10;41.50;;;;;;5067318;28;21040;-67
2021/12/31 07:55:39;;;;;;;1.00;0.80;;;18.10;41.50;;;;;;5070027;28;20496;-66
2021/12/31 07:58:05;;;;;;;1.10;0.70;;;18.10;41.50;;;;;;5069477;28;20326;-66
2021/12/31 08:00:32;;;;;;;1.03;0.90;;;18.10;41.50;;;;;;5051562;28;20217;-66
2021/12/31 08:02:58;;;;;;;0.80;0.70;;;18.10;41.50;;;;;;5069158;28;20225;-66
2021/12/31 08:05:28;;;;;;;1.10;0.90;;;18.10;41.50;;;;;;5069421;28;20418;-66
2021/12/31 08:07:54;;;;;;;0.80;0.80;;;18.10;41.60;;;;;;5066962;28;20503;-67
2021/12/31 08:10:20;;;;;;;1.00;0.87;;;18.10;41.60;;;;;;5068876;28;20508;-67
2021/12/31 08:12:46;;;;;;;1.27;0.80;;;18.10;41.60;;;;;;5069145;28;20286;-66
2021/12/31 08:15:12;;;;;;;0.93;0.90;;;18.10;41.60;;;;;;5069729;28;20769;-66
2021/12/31 08:17:38;;;;;;;1.00;0.80;;;18.10;41.50;;;;;;5069257;28;20947;-66
2021/12/31 08:20:04;;;;;;;0.70;0.70;;;18.10;41.50;;;;;;5069064;28;20248;-67
2021/12/31 08:22:30;;;;;;;1.00;0.90;;;18.10;41.60;;;;;;5069098;28;20413;-66
2021/12/31 08:24:55;;;;;;;0.80;0.70;;;18.10;41.50;;;;;;5068976;28;20518;-66
2021/12/31 08:27:21;;;;;;;0.70;0.70;;;18.10;41.60;;;;;;5069245;28;20213;-66
2021/12/31 08:29:47;;;;;;;0.70;0.70;;;18.10;42.30;;;;;;5069052;28;20316;-66
2021/12/31 08:32:12;;;;;;;0.80;0.80;;;18.10;41.60;;;;;;5069592;28;20275;-66
2021/12/31 08:34:38;;;;;;;0.80;0.80;;;18.10;41.70;;;;;;5069341;28;20327;-66
2021/12/31 08:37:04;;;;;;;1.10;1.00;;;18.10;41.60;;;;;;5068984;28;20685;-66
2021/12/31 08:39:30;;;;;;;1.20;0.80;;;18.10;41.60;;;;;;5068433;28;20240;-66
2021/12/31 08:41:56;;;;;;;0.90;0.90;;;18.10;41.60;;;;;;5050898;28;20214;-67
2021/12/31 08:44:21;;;;;;;0.87;0.87;;;18.10;41.60;;;;;;5050908;28;20445;-66
2021/12/31 08:46:47;;;;;;;1.30;0.90;;;18.10;41.60;;;;;;5050632;28;20228;-66
2021/12/31 08:49:14;;;;;;;0.90;0.80;;;18.10;41.60;;;;;;5068802;28;20225;-66
2021/12/31 08:51:39;;;;;;;0.80;0.80;;;18.10;41.60;;;;;;5069706;28;20343;-66
2021/12/31 08:54:06;;;;;;;0.80;0.70;;;18.10;41.60;;;;;;5068910;28;20526;-66
2021/12/31 08:56:31;;;;;;;0.97;0.90;;;18.10;41.60;;;;;;5050978;28;20794;-66
2021/12/31 08:58:57;;;;;;;0.80;0.70;;;18.10;41.60;;;;;;5068735;28;20417;-66
2021/12/31 09:01:23;;;;;;;0.87;0.87;;;18.10;41.60;;;;;;5068351;28;20689;-66
2021/12/31 09:03:48;;;;;;;0.80;0.70;;;18.10;41.60;;;;;;5068412;28;20323;-66
2021/12/31 09:06:18;;;;;;;0.80;0.80;;;18.10;41.60;;;;;;5068814;28;20209;-66
2021/12/31 09:08:46;;;;;;;2.37;1.20;;;18.10;41.60;;;;;;5068769;28;20753;-66
2021/12/31 09:11:12;;;;;;;0.73;0.70;;;18.10;41.60;;;;;;5068730;28;20466;-66
2021/12/31 09:13:37;;;;;;;1.00;0.80;;;18.10;42.40;;;;;;5068889;28;20534;-66
2021/12/31 09:16:04;;;;;;;0.70;0.70;;;18.10;41.60;;;;;;5068299;28;20463;-66
2021/12/31 09:18:29;;;;;;;1.03;0.93;;;18.10;41.60;;;;;;5068689;28;20327;-66
2021/12/31 09:20:55;;;;;;;0.83;0.83;;;18.10;41.60;;;;;;5070766;28;20935;-66
2021/12/31 09:23:21;;;;;;;0.80;0.80;;;18.10;41.60;;;;;;5072370;28;20296;-66
2021/12/31 09:25:48;;;;;;;0.70;0.70;;;18.10;41.60;;;;;;5072042;28;20217;-66
2021/12/31 09:28:15;;;;;;;0.73;0.73;;;18.10;41.60;;;;;;5072230;28;20222;-66
2021/12/31 09:30:41;;;;;;;0.70;0.70;;;18.10;41.60;;;;;;5070935;28;20434;-66
2021/12/31 09:33:07;;;;;;;0.80;0.80;;;18.10;41.60;;;;;;5071588;28;20953;-66
2021/12/31 09:35:33;;;;;;;0.80;0.80;;;18.10;41.60;;;;;;5072011;28;20225;-67
2021/12/31 09:38:00;;;;;;;0.70;0.70;;;18.10;41.60;;;;;;5072034;28;20221;-66
2021/12/31 09:40:26;;;;;;;0.80;0.80;;;18.10;41.70;;;;;;5071918;28;20486;-66
2021/12/31 09:43:07;;;;;;;0.83;0.80;;;18.10;41.60;;;;;;5053958;28;20435;-66
2021/12/31 09:45:34;;;;;;;0.73;0.70;;;18.10;41.60;;;;;;5069761;28;20414;-66
2021/12/31 09:48:00;;;;;;;0.87;0.87;;;18.10;41.70;;;;;;5071558;28;20447;-66
2021/12/31 09:50:27;;;;;;;0.70;0.70;;;18.10;41.70;;;;;;5070267;28;20522;-67
2021/12/31 09:52:56;;;;;;;0.77;0.73;;;18.10;41.60;;;;;;5071403;28;20225;-67
2021/12/31 09:55:49;;;;;;;0.80;0.80;;;18.10;41.70;;;;;;5071634;28;20979;-66
2021/12/31 09:58:16;;;;;;;0.80;0.70;;;18.10;41.70;;;;;;5064131;28;20425;-66
2021/12/31 10:00:47;;;;;;;1.00;0.90;;;18.10;41.70;;;;;;5071636;28;20477;-67
2021/12/31 10:03:17;;;;;;;0.87;0.87;;;18.10;41.70;;;;;;5070730;28;20461;-66
2021/12/31 10:05:46;;;;;;;0.80;0.80;;;18.10;42.50;;;;;;5068384;28;20542;-67
2021/12/31 10:08:23;;;;;;;0.70;0.70;;;18.10;41.80;;;;;;5070209;28;20939;-66
2021/12/31 10:11:10;;;;;;;0.73;0.73;;;18.10;41.70;;;;;;5069522;28;20431;-66
2021/12/31 10:13:44;;;;;;;0.70;0.70;;;18.10;41.70;;;;;;5041268;28;20797;-66
2021/12/31 10:16:26;;;;;;;0.90;0.90;;;18.10;41.70;;;;;;5053467;28;20417;-66
2021/12/31 10:19:26;;;;;;;1.00;0.90;;;18.10;41.70;;;;;;5070981;28;20788;-67
2021/12/31 10:21:54;;;;;;;0.70;0.67;;;18.10;42.50;;;;;;5069100;28;20780;-66
2021/12/31 10:24:25;;;;;;;0.83;0.83;;;18.10;41.80;;;;;;5071095;28;20429;-66
2021/12/31 10:26:53;;;;;;;0.90;0.90;;;18.10;41.80;;;;;;5070451;28;20461;-66
2021/12/31 10:29:18;;;;;;;0.80;0.73;;;18.10;42.60;;;;;;5070786;28;20474;-66
2021/12/31 10:31:46;;;;;;;0.80;0.70;;;18.10;41.80;;;;;;5070429;28;20815;-66
2021/12/31 10:34:34;;;;;;;0.80;0.80;;;18.10;41.80;;;;;;5068912;28;20218;-66
2021/12/31 10:37:03;;;;;;;0.70;0.67;;;18.10;41.80;;;;;;5067312;28;20454;-66
2021/12/31 10:39:32;;;;;;;0.87;0.80;;;18.10;41.80;;;;;;5070794;28;20846;-66
2021/12/31 10:42:07;;;;;;;0.70;0.70;;;18.10;42.60;;;;;;5070694;28;20527;-66
2021/12/31 10:44:51;;;;;;;0.97;0.87;;;18.10;41.80;;;;;;5070279;28;23382;-66
2021/12/31 10:47:31;;;;;;;0.80;0.80;;;18.10;41.80;;;;;;5069976;28;20497;-66
2021/12/31 10:50:00;;;;;;;0.73;0.70;;;18.10;41.80;;;;;;5069830;28;20494;-66
2021/12/31 10:52:33;;;;;;;0.80;0.77;;;18.10;41.90;;;;;;5070688;28;20421;-66
2021/12/31 10:55:17;;;;;;;0.80;0.80;;;18.10;41.80;;;;;;5070135;28;20916;-66
2021/12/31 10:57:44;;;;;;;0.90;0.80;;;18.10;41.90;;;;;;5070879;28;20496;-66
2021/12/31 11:00:11;;;;;;;0.80;0.80;;;18.10;41.80;;;;;;5067619;28;20424;-66
2021/12/31 11:02:38;;;;;;;0.97;0.87;;;18.10;41.80;;;;;;5070251;28;20442;-66
2021/12/31 11:05:05;;;;;;;0.87;0.87;;;18.10;41.90;;;;;;5070030;28;20606;-66
2021/12/31 11:07:31;;;;;;;0.80;0.73;;;18.10;41.90;;;;;;5070214;28;20451;-66
2021/12/31 11:10:01;;;;;;;0.73;0.73;;;18.10;41.90;;;;;;5070140;28;20498;-66
2021/12/31 11:12:27;;;;;;;0.80;0.80;;;18.10;41.90;;;;;;5066633;28;20571;-66
2021/12/31 11:14:54;;;;;;;1.10;1.00;;;18.10;41.90;;;;;;5069885;28;20765;-67
2021/12/31 11:17:21;;;;;;;0.80;0.80;;;18.10;41.90;;;;;;5069869;28;20800;-66
2021/12/31 11:19:49;;;;;;;1.10;1.00;;;18.10;41.90;;;;;;5070074;28;20956;-66
2021/12/31 11:22:17;;;;;;;0.80;0.80;;;18.10;41.90;;;;;;5070025;28;20445;-66
2021/12/31 11:24:43;;;;;;;1.00;0.90;;;18.10;41.90;;;;;;5070359;28;20446;-66
2021/12/31 11:27:29;;;;;;;0.97;0.90;;;18.10;41.90;;;;;;5069859;28;20421;-66
2021/12/31 11:29:56;;;;;;;0.77;0.77;;;18.10;41.80;;;;;;5069072;28;20948;-66
2021/12/31 11:32:57;;;;;;;0.80;0.70;;;18.10;41.80;;;;;;5069751;28;20421;-67
2021/12/31 11:35:38;;;;;;;0.80;0.80;;;18.10;41.80;;;;;;5067331;28;20870;-66
2021/12/31 11:38:16;;;;;;;0.80;0.80;;;18.10;41.90;;;;;;5068708;28;20429;-67
2021/12/31 11:40:50;;;;;;;0.80;0.80;;;18.10;41.80;;;;;;5069961;28;20438;-66
2021/12/31 11:43:27;;;;;;;0.80;0.80;;;18.10;41.80;;;;;;5069008;28;20467;-66
2021/12/31 11:46:19;;;;;;;0.70;0.63;;;18.10;41.80;;;;;;5068520;28;20450;-66
2021/12/31 11:48:48;;;;;;;0.90;0.80;;;18.10;41.80;;;;;;5068498;28;20437;-66
2021/12/31 11:51:34;;;;;;;0.97;0.87;;;18.10;41.80;;;;;;5069012;28;20425;-66
2021/12/31 11:54:00;;;;;;;0.80;0.80;;;18.10;41.80;;;;;;5069580;28;20417;-66
2021/12/31 11:56:43;;;;;;;0.80;0.80;;;18.10;41.80;;;;;;5069379;28;20439;-66
2021/12/31 11:59:08;;;;;;;0.77;0.77;;;18.10;41.90;;;;;;5069238;28;20241;-66
2021/12/31 12:01:37;;;;;;;0.80;0.70;;;18.10;41.90;;;;;;5069424;28;20433;-67
2021/12/31 12:04:22;;;;;;;0.90;0.90;;;18.10;41.80;;;;;;5068658;28;20254;-66
2021/12/31 12:06:52;;;;;;;0.80;0.80;;;18.10;41.80;;;;;;5069266;28;20446;-66
2021/12/31 12:09:18;;;;;;;0.70;0.70;;;18.10;41.80;;;;;;5069176;28;20442;-66
2021/12/31 12:11:59;;;;;;;0.93;0.80;;;18.10;41.80;;;;;;5069189;28;20449;-66
2021/12/31 12:14:31;;;;;;;0.70;0.70;;;18.10;41.80;;;;;;5067283;28;20252;-66
2021/12/31 12:16:58;;;;;;;0.73;0.73;;;18.10;41.90;;;;;;5067442;28;20433;-66
2021/12/31 12:19:46;;;;;;;1.00;0.90;;;18.10;41.80;;;;;;5069496;28;20765;-66
2021/12/31 12:22:37;;;;;;;0.80;0.77;;;18.10;41.90;;;;;;5067926;28;20793;-66
2021/12/31 12:25:07;;;;;;;0.70;0.70;;;18.10;41.80;;;;;;5068030;28;20796;-66
2021/12/31 12:27:33;;;;;;;0.70;0.70;;;18.10;41.90;;;;;;5069056;28;20541;-66
2021/12/31 12:30:01;;;;;;;0.97;0.70;;;18.10;41.90;;;;;;5068956;28;20504;-67
2021/12/31 12:35:24;;;;;;;0.80;0.80;;;18.10;41.90;;;;;;5069411;28;20500;-66
2021/12/31 12:38:02;;;;;;;0.90;0.80;;;18.10;41.90;;;;;;5067948;28;20458;-67
2021/12/31 12:40:42;;;;;;;0.70;0.70;;;18.10;41.90;;;;;;5065078;28;20488;-66
2021/12/31 12:43:22;;;;;;;1.10;0.93;;;18.10;41.90;;;;;;5068388;28;20422;-66
2021/12/31 12:45:56;;;;;;;0.70;0.70;;;18.10;41.90;;;;;;5068675;28;20546;-67
2021/12/31 12:48:33;;;;;;;0.80;0.70;;;18.10;41.80;;;;;;5068942;28;20419;-67
2021/12/31 12:51:00;;;;;;;0.70;0.67;;;18.10;41.90;;;;;;5067403;28;20784;-66
2021/12/31 12:53:29;;;;;;;0.70;0.70;;;18.10;41.90;;;;;;5068934;28;20421;-66
2021/12/31 12:56:08;;;;;;;0.70;0.70;;;18.10;41.90;;;;;;5072517;28;20458;-66
2021/12/31 12:58:38;;;;;;;0.90;0.90;;;18.10;41.90;;;;;;5070011;28;20482;-67